Time;durP1;ratioP1;P1;durP2;ratioP2;P2;SDS_P1;SDS_P2;PMS_P1;PMS_P2;Temp;Humidity;BMP_temperature;BMP_pressure;BME280_temperature;BME280_humidity;BME280_pressure;Samples;Min_cycle;Max_cycle;Signal;HPM_P1;HPM_P2
2022/05/31 00:00:14;;;;;;;8.70;6.35;;;;;;;8.81;97.05;100304.94;5052074;28;20032;-75
2022/05/31 00:02:40;;;;;;;10.80;6.93;;;;;;;8.74;96.71;100300.34;5015729;28;20029;-78
2022/05/31 00:05:05;;;;;;;10.02;6.88;;;;;;;8.70;96.87;100293.22;5015913;28;20029;-75
2022/05/31 00:07:31;;;;;;;11.00;7.22;;;;;;;8.76;97.51;100308.41;5016218;28;20119;-76
2022/05/31 00:09:56;;;;;;;8.38;5.70;;;;;;;8.76;97.24;100323.38;5016243;28;20036;-76
2022/05/31 00:12:22;;;;;;;10.55;6.80;;;;;;;8.66;97.82;100299.84;5015794;28;20055;-79
2022/05/31 00:14:47;;;;;;;10.75;6.72;;;;;;;8.72;97.80;100311.38;4999369;28;20531;-76
2022/05/31 00:17:12;;;;;;;10.13;5.97;;;;;;;8.66;97.64;100307.56;4999546;28;20036;-75
2022/05/31 00:19:38;;;;;;;10.48;5.93;;;;;;;8.71;97.99;100320.38;4999335;28;20025;-76
2022/05/31 00:22:23;;;;;;;12.05;6.28;;;;;;;8.66;97.56;100308.34;5016049;28;20569;-77
2022/05/31 00:24:51;;;;;;;8.45;5.90;;;;;;;8.61;97.25;100308.97;4999558;28;20138;-77
2022/05/31 00:27:19;;;;;;;8.43;6.18;;;;;;;8.65;97.00;100318.13;4999624;28;20033;-77
2022/05/31 00:29:47;;;;;;;7.53;5.40;;;;;;;8.58;96.45;100326.91;4999334;28;20021;-76
2022/05/31 00:32:14;;;;;;;9.32;6.10;;;;;;;8.53;96.38;100321.88;5033576;28;20154;-76
2022/05/31 00:34:43;;;;;;;9.82;6.25;;;;;;;8.45;97.87;100314.06;5015877;28;20022;-76
2022/05/31 00:37:09;;;;;;;11.57;6.47;;;;;;;8.39;97.17;100301.72;5015690;28;20075;-74
2022/05/31 00:39:34;;;;;;;8.75;6.05;;;;;;;8.38;97.72;100298.13;4999168;28;20029;-77
2022/05/31 00:42:06;;;;;;;10.95;6.25;;;;;;;8.30;97.93;100293.97;5015822;28;20045;-75
2022/05/31 00:44:33;;;;;;;11.05;6.63;;;;;;;8.31;97.86;100309.75;5015781;28;20029;-78
2022/05/31 00:47:31;;;;;;;11.88;7.10;;;;;;;8.36;97.91;100323.31;5015493;28;20079;-77
2022/05/31 00:49:57;;;;;;;8.82;6.60;;;;;;;8.31;98.35;100329.59;5032287;28;20120;-76
2022/05/31 00:52:29;;;;;;;11.55;7.45;;;;;;;8.22;97.94;100324.63;5015581;28;20038;-77
2022/05/31 00:55:07;;;;;;;10.10;6.65;;;;;;;8.17;98.65;100322.41;4999101;28;20033;-76
2022/05/31 00:57:34;;;;;;;11.20;6.57;;;;;;;8.23;98.64;100331.91;5015721;28;20056;-77
2022/05/31 01:00:05;;;;;;;10.38;6.72;;;;;;;8.00;98.12;100297.50;5032037;28;20026;-76
2022/05/31 01:02:30;;;;;;;9.40;6.37;;;;;;;8.21;98.10;100334.41;5015623;28;20103;-76
2022/05/31 01:04:59;;;;;;;10.43;6.43;;;;;;;8.09;98.19;100323.88;5002717;28;20458;-76
2022/05/31 01:07:25;;;;;;;8.02;6.25;;;;;;;8.18;98.38;100340.22;5002631;28;20029;-77
2022/05/31 01:09:51;;;;;;;9.88;6.80;;;;;;;8.16;98.78;100340.66;5035550;28;20528;-77
2022/05/31 01:12:17;;;;;;;9.18;6.43;;;;;;;7.98;98.66;100312.16;5018882;28;20029;-75
2022/05/31 01:14:43;;;;;;;10.50;6.60;;;;;;;8.07;98.24;100336.97;5018950;28;20032;-76
2022/05/31 01:17:13;;;;;;;10.20;6.65;;;;;;;8.11;98.80;100346.13;5036557;28;20029;-76
2022/05/31 01:19:59;;;;;;;9.35;6.88;;;;;;;8.06;98.55;100336.16;5035420;28;20051;-75
2022/05/31 01:22:36;;;;;;;9.43;6.55;;;;;;;8.05;98.80;100339.47;5005205;28;20083;-75
2022/05/31 01:25:39;;;;;;;12.02;7.22;;;;;;;8.02;99.07;100332.69;5018552;28;20036;-76
2022/05/31 01:28:23;;;;;;;9.25;7.03;;;;;;;7.99;98.90;100339.25;5034863;28;20022;-77
2022/05/31 01:31:02;;;;;;;9.10;6.45;;;;;;;7.93;98.31;100331.81;5039381;28;20481;-75
2022/05/31 01:33:34;;;;;;;11.95;7.07;;;;;;;7.91;98.60;100337.94;5018513;28;20021;-77
2022/05/31 01:36:07;;;;;;;9.90;6.35;;;;;;;7.89;98.71;100348.97;5034696;28;20032;-77
2022/05/31 01:38:58;;;;;;;9.40;6.47;;;;;;;7.88;99.08;100352.25;5001961;28;20029;-77
2022/05/31 01:41:28;;;;;;;9.60;6.30;;;;;;;7.72;98.60;100341.88;5032520;28;20020;-77
2022/05/31 01:43:56;;;;;;;9.00;6.03;;;;;;;7.82;98.26;100360.56;5054596;28;20021;-77
2022/05/31 01:46:29;;;;;;;10.73;6.65;;;;;;;7.79;98.38;100352.97;5054483;28;20462;-77
2022/05/31 01:48:55;;;;;;;10.55;6.13;;;;;;;7.72;97.91;100348.34;5054316;28;20072;-76
2022/05/31 01:51:22;;;;;;;11.85;6.07;;;;;;;7.72;98.37;100354.00;5055756;28;20047;-76
2022/05/31 01:53:48;;;;;;;15.88;8.15;;;;;;;7.70;98.29;100350.03;5037864;28;20116;-76
2022/05/31 01:56:13;;;;;;;12.55;6.95;;;;;;;7.63;97.99;100341.78;5054415;28;20111;-77
2022/05/31 01:58:41;;;;;;;11.80;8.07;;;;;;;7.69;97.57;100359.81;5037593;28;20103;-79
2022/05/31 02:01:08;;;;;;;9.85;6.63;;;;;;;7.65;98.30;100351.41;5054160;28;20465;-76
2022/05/31 02:03:34;;;;;;;9.70;6.63;;;;;;;7.59;98.34;100346.78;5055492;28;20033;-77
2022/05/31 02:05:59;;;;;;;16.00;6.63;;;;;;;7.58;97.53;100343.16;5037983;28;20482;-77
2022/05/31 02:08:29;;;;;;;9.93;6.75;;;;;;;7.55;97.22;100343.28;5037501;28;20021;-75
2022/05/31 02:10:56;;;;;;;10.45;6.45;;;;;;;7.60;97.16;100348.34;5037759;28;20406;-75
2022/05/31 02:13:21;;;;;;;9.77;6.78;;;;;;;7.57;97.08;100352.13;5054004;28;20025;-76
2022/05/31 02:15:47;;;;;;;10.40;7.70;;;;;;;7.51;97.30;100348.28;5053450;28;20112;-76
2022/05/31 02:18:12;;;;;;;11.23;7.10;;;;;;;7.43;97.73;100341.28;5037299;28;20426;-76
2022/05/31 02:20:38;;;;;;;12.40;6.95;;;;;;;7.44;98.26;100348.53;5053883;28;20024;-77
2022/05/31 02:23:04;;;;;;;10.27;6.53;;;;;;;7.42;97.89;100348.19;5053967;28;20025;-77
2022/05/31 02:25:29;;;;;;;11.93;7.75;;;;;;;7.33;96.97;100337.56;5037324;28;20102;-77
2022/05/31 02:27:55;;;;;;;9.15;6.40;;;;;;;7.43;97.08;100352.59;5048715;28;20378;-76
2022/05/31 02:30:21;;;;;;;8.90;6.13;;;;;;;7.38;97.46;100348.31;5037508;28;20096;-77
2022/05/31 02:32:46;;;;;;;13.98;7.63;;;;;;;7.23;97.68;100336.66;5054442;28;20373;-77
2022/05/31 02:35:12;;;;;;;8.73;6.20;;;;;;;7.26;97.84;100360.44;5036988;28;20028;-77
2022/05/31 02:37:37;;;;;;;11.38;6.95;;;;;;;7.28;97.73;100355.91;5020904;28;20047;-76
2022/05/31 02:40:05;;;;;;;8.15;5.95;;;;;;;7.03;97.72;100327.63;5020288;28;20071;-76
2022/05/31 02:42:31;;;;;;;12.05;6.53;;;;;;;7.24;98.25;100354.47;5054646;28;20435;-77
2022/05/31 02:44:56;;;;;;;11.32;7.45;;;;;;;7.10;98.41;100326.59;5038518;28;20115;-77
2022/05/31 02:47:22;;;;;;;7.88;6.00;;;;;;;7.24;97.79;100348.78;5054814;28;20381;-77
2022/05/31 02:49:48;;;;;;;13.77;6.55;;;;;;;7.26;97.81;100351.94;5054369;28;20041;-76
2022/05/31 02:52:14;;;;;;;11.82;6.45;;;;;;;7.18;97.79;100339.28;5053428;28;20492;-76
2022/05/31 02:54:39;;;;;;;12.07;7.40;;;;;;;7.31;98.11;100368.38;5036961;28;20035;-78
2022/05/31 02:57:05;;;;;;;14.98;7.03;;;;;;;7.27;98.14;100360.00;5036849;28;20024;-76
2022/05/31 02:59:31;;;;;;;9.85;6.80;;;;;;;7.35;98.12;100360.56;5033141;28;20021;-76
2022/05/31 03:01:56;;;;;;;13.57;6.55;;;;;;;7.31;97.66;100348.53;5017564;28;20083;-75
2022/05/31 03:04:22;;;;;;;9.05;5.60;;;;;;;7.41;97.65;100361.56;5035966;28;20017;-75
2022/05/31 03:06:48;;;;;;;9.93;6.35;;;;;;;7.39;97.25;100355.56;5017974;28;20377;-76
2022/05/31 03:09:13;;;;;;;13.73;8.27;;;;;;;7.16;97.92;100319.91;5017656;28;20035;-76
2022/05/31 03:11:42;;;;;;;12.32;6.80;;;;;;;7.42;98.41;100360.31;5016584;28;20021;-76
2022/05/31 03:14:32;;;;;;;12.18;7.13;;;;;;;7.43;98.82;100361.09;5034524;28;20037;-75
2022/05/31 03:17:04;;;;;;;11.75;7.15;;;;;;;7.51;98.51;100362.44;5016660;28;20030;-75
2022/05/31 03:19:34;;;;;;;11.55;7.70;;;;;;;7.51;98.47;100365.28;5016600;28;20044;-77
2022/05/31 03:22:04;;;;;;;14.77;8.55;;;;;;;7.61;98.48;100367.75;5016233;28;20124;-75
2022/05/31 03:24:36;;;;;;;15.20;9.00;;;;;;;7.55;98.58;100344.06;5032709;28;20429;-76
2022/05/31 03:27:03;;;;;;;15.18;7.90;;;;;;;7.72;98.53;100364.56;5043474;28;20031;-76
2022/05/31 03:29:28;;;;;;;13.57;8.55;;;;;;;7.70;98.55;100359.34;5020261;28;20021;-75
2022/05/31 03:31:54;;;;;;;16.27;9.18;;;;;;;7.81;98.08;100361.78;5023992;28;20032;-76
2022/05/31 03:34:20;;;;;;;13.07;8.70;;;;;;;7.82;97.13;100352.84;5052829;28;20025;-75
2022/05/31 03:36:45;;;;;;;13.27;8.75;;;;;;;7.88;96.93;100352.25;5053599;28;20035;-75
2022/05/31 03:39:10;;;;;;;16.45;8.30;;;;;;;7.93;97.01;100363.81;5052444;28;20370;-76
2022/05/31 03:41:36;;;;;;;13.57;8.10;;;;;;;7.88;96.88;100349.41;5052518;28;20025;-75
2022/05/31 03:44:02;;;;;;;14.05;8.85;;;;;;;7.92;97.15;100347.25;5035860;28;20020;-76
2022/05/31 03:46:27;;;;;;;14.10;7.97;;;;;;;7.93;96.61;100337.50;5035916;28;20481;-76
2022/05/31 03:48:52;;;;;;;17.50;8.98;;;;;;;8.08;96.60;100364.09;5035826;28;20564;-76
2022/05/31 03:51:18;;;;;;;15.55;8.55;;;;;;;8.16;95.66;100363.34;5036460;28;20103;-77
2022/05/31 03:53:43;;;;;;;13.07;7.68;;;;;;;8.23;95.47;100357.44;5036690;28;20031;-75
2022/05/31 03:56:11;;;;;;;12.45;7.57;;;;;;;8.24;95.00;100353.31;5041641;28;20052;-76
2022/05/31 03:58:38;;;;;;;12.82;7.57;;;;;;;8.34;95.37;100364.78;5059022;28;20082;-75
2022/05/31 04:01:04;;;;;;;12.40;7.85;;;;;;;8.41;95.22;100376.66;5036600;28;20385;-77
2022/05/31 04:03:29;;;;;;;11.60;8.45;;;;;;;8.46;95.88;100373.22;5035958;28;20021;-75
2022/05/31 04:05:54;;;;;;;14.13;7.72;;;;;;;8.52;95.57;100385.56;5035276;28;20126;-76
2022/05/31 04:08:20;;;;;;;18.00;10.63;;;;;;;8.53;95.24;100386.38;5051887;28;20599;-75
2022/05/31 04:10:46;;;;;;;16.50;9.30;;;;;;;8.72;94.68;100390.09;5053567;28;20029;-76
2022/05/31 04:13:13;;;;;;;13.05;8.55;;;;;;;8.70;95.00;100382.03;5035864;28;20029;-77
2022/05/31 04:15:40;;;;;;;13.50;8.60;;;;;;;8.86;94.30;100389.53;5035424;28;20029;-75
2022/05/31 04:18:08;;;;;;;15.23;8.32;;;;;;;9.01;93.63;100394.19;5053619;28;20025;-77
2022/05/31 04:20:34;;;;;;;13.95;8.43;;;;;;;9.10;93.28;100401.97;5051953;28;20041;-77
2022/05/31 04:25:45;;;;;;;12.70;8.55;;;;;;;9.25;92.36;100402.97;5052848;28;20628;-76
2022/05/31 04:28:11;;;;;;;17.33;8.43;;;;;;;9.30;92.48;100410.91;5051607;28;20033;-77
2022/05/31 04:30:38;;;;;;;16.88;7.63;;;;;;;9.41;93.18;100408.41;5052038;28;20028;-77
2022/05/31 04:33:12;;;;;;;12.32;8.90;;;;;;;9.39;93.72;100402.41;5051928;28;20044;-76
2022/05/31 04:35:39;;;;;;;15.95;8.55;;;;;;;9.46;92.92;100418.38;5053773;28;20021;-76
2022/05/31 04:38:05;;;;;;;12.23;8.60;;;;;;;9.39;93.96;100408.09;5055082;28;20032;-77
2022/05/31 04:40:31;;;;;;;13.45;7.65;;;;;;;9.56;92.83;100414.31;5056430;28;20021;-77
2022/05/31 04:42:58;;;;;;;13.82;7.70;;;;;;;9.60;93.07;100417.78;5057708;28;20115;-77
2022/05/31 04:45:26;;;;;;;13.15;7.63;;;;;;;9.64;92.95;100400.56;5055663;28;20037;-77
2022/05/31 04:47:52;;;;;;;10.45;7.90;;;;;;;9.81;91.88;100410.41;5057141;28;20028;-75
2022/05/31 04:50:39;;;;;;;14.10;7.28;;;;;;;9.98;91.63;100409.66;5057267;28;20013;-76
2022/05/31 04:53:05;;;;;;;12.48;8.63;;;;;;;10.18;91.20;100422.66;5056939;28;20094;-77
2022/05/31 04:55:31;;;;;;;13.30;7.97;;;;;;;10.31;91.42;100423.31;5037718;28;20432;-80
2022/05/31 04:57:57;;;;;;;11.18;7.90;;;;;;;10.33;91.17;100421.56;5056948;28;20449;-83
2022/05/31 05:00:24;;;;;;;12.73;8.43;;;;;;;10.44;90.66;100408.91;5056254;28;20028;-79
2022/05/31 05:02:49;;;;;;;11.23;7.43;;;;;;;10.53;90.48;100417.44;5057754;28;20025;-80
2022/05/31 05:05:16;;;;;;;13.73;7.95;;;;;;;10.61;90.00;100401.59;5041700;28;20021;-82
2022/05/31 05:07:41;;;;;;;11.38;7.00;;;;;;;10.76;88.36;100396.81;5039457;28;20103;-82
2022/05/31 05:10:08;;;;;;;10.65;6.78;;;;;;;10.88;88.13;100392.19;5040528;28;20462;-84
2022/05/31 05:12:35;;;;;;;9.20;6.95;;;;;;;11.09;88.39;100400.53;5024885;28;20167;-84
2022/05/31 05:15:05;;;;;;;14.93;7.88;;;;;;;11.18;87.20;100397.66;5039766;28;20036;-79
2022/05/31 05:17:31;;;;;;;10.57;7.65;;;;;;;11.24;87.06;100398.56;5040169;28;20021;-80
2022/05/31 05:19:57;;;;;;;10.88;6.90;;;;;;;11.40;86.23;100396.59;5039998;28;20473;-79
2022/05/31 05:22:31;;;;;;;12.90;7.60;;;;;;;11.50;85.51;100407.47;5022818;28;20052;-79
2022/05/31 05:24:57;;;;;;;11.63;7.35;;;;;;;11.64;84.92;100408.84;5038188;28;20021;-79
2022/05/31 05:27:23;;;;;;;10.93;7.25;;;;;;;11.74;83.97;100399.00;5056649;28;20085;-80
2022/05/31 05:32:33;;;;;;;9.68;7.05;;;;;;;12.05;82.67;100405.09;5054795;28;20134;-80
2022/05/31 05:34:58;;;;;;;9.73;6.28;;;;;;;12.19;81.19;100397.06;5036050;28;20075;-79
2022/05/31 05:37:24;;;;;;;8.50;6.05;;;;;;;12.29;80.31;100393.66;5053381;28;20485;-80
2022/05/31 05:39:49;;;;;;;9.85;6.63;;;;;;;12.51;80.34;100399.00;5037789;28;20086;-81
2022/05/31 05:42:15;;;;;;;9.65;6.03;;;;;;;12.68;79.71;100400.09;5055466;28;20021;-81
2022/05/31 05:44:41;;;;;;;8.57;6.70;;;;;;;12.83;78.86;100402.97;5054102;28;20028;-81
2022/05/31 05:47:09;;;;;;;9.90;6.70;;;;;;;12.94;79.30;100403.97;5036413;28;20453;-80
2022/05/31 05:49:35;;;;;;;8.90;5.97;;;;;;;13.03;77.28;100405.94;5051840;28;20052;-81
2022/05/31 05:52:01;;;;;;;9.10;6.60;;;;;;;13.12;78.05;100393.66;5036042;28;20025;-79
2022/05/31 05:54:27;;;;;;;8.13;5.10;;;;;;;13.93;76.48;100390.94;5052590;28;20031;-79
2022/05/31 05:56:52;;;;;;;5.78;4.05;;;;;;;15.58;70.50;100381.72;5052579;28;20021;-80
2022/05/31 05:59:20;;;;;;;11.90;3.95;;;;;;;17.54;63.63;100381.72;5053469;28;20032;-79
2022/05/31 06:01:54;;;;;;;5.85;3.95;;;;;;;19.55;53.20;100386.47;5053291;28;20056;-80
2022/05/31 06:04:23;;;;;;;6.70;4.22;;;;;;;21.03;47.34;100390.16;5053266;28;20032;-80
2022/05/31 06:06:55;;;;;;;6.85;3.50;;;;;;;21.82;45.04;100390.41;5053947;28;20025;-80
2022/05/31 06:09:22;;;;;;;8.57;4.28;;;;;;;22.09;41.09;100389.13;5055281;28;20083;-79
2022/05/31 06:11:55;;;;;;;5.25;3.90;;;;;;;23.08;38.83;100394.09;5054100;28;20029;-79
2022/05/31 06:14:27;;;;;;;4.30;3.00;;;;;;;24.16;36.92;100396.59;5054025;28;20103;-79
2022/05/31 06:16:56;;;;;;;7.60;3.95;;;;;;;25.25;34.12;100398.84;5055137;28;20029;-80
2022/05/31 06:19:36;;;;;;;8.15;3.83;;;;;;;26.23;31.63;100392.25;5041866;28;20021;-82
2022/05/31 06:22:07;;;;;;;4.63;4.00;;;;;;;27.18;30.84;100394.44;5052589;28;20037;-85
2022/05/31 06:24:34;;;;;;;4.60;3.83;;;;;;;28.55;29.07;100385.22;5033194;28;20025;-81
2022/05/31 06:27:00;;;;;;;5.35;4.00;;;;;;;29.01;27.79;100403.06;5019558;28;20158;-78
2022/05/31 06:29:31;;;;;;;3.88;3.58;;;;;;;29.54;27.83;100391.31;5036331;28;20108;-78
2022/05/31 06:31:56;;;;;;;4.78;3.03;;;;;;;30.18;26.35;100392.00;5042253;28;20028;-77
2022/05/31 06:34:23;;;;;;;5.47;3.58;;;;;;;30.95;25.10;100394.97;5037434;28;20021;-76
2022/05/31 06:37:08;;;;;;;3.40;3.05;;;;;;;32.06;23.08;100400.19;5036619;28;20155;-78
2022/05/31 06:39:35;;;;;;;4.22;3.00;;;;;;;32.52;20.62;100384.97;5016850;28;20057;-84
2022/05/31 06:42:02;;;;;;;3.15;2.55;;;;;;;32.37;21.00;100394.25;5019853;28;20477;-82
2022/05/31 06:44:34;;;;;;;3.10;2.80;;;;;;;32.34;21.50;100401.44;5030733;28;20029;-79
2022/05/31 06:46:59;;;;;;;4.25;3.22;;;;;;;33.05;22.62;100399.59;5016814;28;20044;-78
2022/05/31 06:49:26;;;;;;;2.20;2.10;;;;;;;32.18;20.63;100400.28;4997064;28;20445;-80
2022/05/31 06:57:23;;;;;;;3.85;2.55;;;;;;;33.39;19.47;100399.72;5033655;28;20167;-81
2022/05/31 06:59:50;;;;;;;3.60;1.98;;;;;;;34.41;19.53;100389.16;5032657;28;20078;-77
2022/05/31 07:02:16;;;;;;;2.33;2.13;;;;;;;34.49;19.41;100388.88;5032555;28;20036;-78
2022/05/31 07:04:43;;;;;;;4.53;2.63;;;;;;;34.63;18.67;100395.66;5032899;28;20040;-79
2022/05/31 07:07:09;;;;;;;2.30;2.10;;;;;;;33.88;18.76;100394.00;5032876;28;20028;-79
2022/05/31 07:09:35;;;;;;;2.15;1.90;;;;;;;34.08;19.28;100388.56;5019770;28;20045;-77
2022/05/31 07:12:03;;;;;;;3.72;2.70;;;;;;;34.91;19.47;100385.53;5027781;28;20033;-78
2022/05/31 07:14:29;;;;;;;3.75;2.70;;;;;;;35.39;17.12;100392.75;5023149;28;20155;-76
2022/05/31 07:16:56;;;;;;;4.82;2.50;;;;;;;35.20;18.85;100381.28;5013093;28;20040;-81
2022/05/31 07:19:21;;;;;;;2.35;2.03;;;;;;;35.58;18.63;100373.78;5022265;28;20029;-72
2022/05/31 07:21:48;;;;;;;2.50;2.30;;;;;;;35.76;17.26;100375.59;5033252;28;20038;-71
2022/05/31 07:24:20;;;;;;;1.75;1.65;;;;;;;35.72;17.68;100372.41;5032083;28;20136;-73
2022/05/31 07:26:46;;;;;;;2.38;2.00;;;;;;;34.91;19.37;100373.69;5016057;28;20026;-72
2022/05/31 07:29:12;;;;;;;2.00;1.90;;;;;;;34.91;18.81;100367.75;5016175;28;20060;-72
2022/05/31 07:31:38;;;;;;;2.47;2.13;;;;;;;35.24;17.76;100369.66;5033727;28;20025;-71
2022/05/31 07:34:04;;;;;;;2.97;1.23;;;;;;;35.54;16.02;100377.28;5031570;28;20052;-71
2022/05/31 07:36:30;;;;;;;4.75;1.67;;;;;;;35.35;18.03;100365.84;5015953;28;20120;-72
2022/05/31 07:38:57;;;;;;;4.13;2.53;;;;;;;35.13;17.07;100361.59;5032695;28;20037;-71
2022/05/31 07:41:23;;;;;;;0.80;0.80;;;;;;;35.31;15.94;100365.63;5014904;28;20056;-71
2022/05/31 07:43:49;;;;;;;12.50;3.15;;;;;;;35.28;16.77;100360.97;5032241;28;20099;-72
2022/05/31 07:46:14;;;;;;;10.70;2.83;;;;;;;35.87;17.17;100356.91;5034735;28;20041;-72
2022/05/31 07:48:41;;;;;;;1.58;1.33;;;;;;;36.54;17.34;100363.47;5037499;28;20372;-71
2022/05/31 07:51:07;;;;;;;7.32;2.30;;;;;;;36.99;16.22;100354.66;5018442;28;20067;-71
2022/05/31 07:53:34;;;;;;;5.55;1.95;;;;;;;37.06;16.25;100361.63;5052445;28;20416;-71
2022/05/31 07:56:10;;;;;;;5.63;1.98;;;;;;;36.94;16.68;100358.84;5035573;28;20025;-71
2022/05/31 07:58:38;;;;;;;3.03;1.90;;;;;;;36.50;16.76;100348.41;5053113;28;20178;-70
2022/05/31 08:01:08;;;;;;;3.78;1.77;;;;;;;36.51;16.71;100343.25;5002473;28;20112;-71
2022/05/31 08:03:37;;;;;;;3.65;2.17;;;;;;;36.88;15.94;100346.66;5018913;28;20409;-70
2022/05/31 08:06:16;;;;;;;1.30;1.20;;;;;;;36.17;16.17;100348.13;5002906;28;20055;-70
2022/05/31 08:08:42;;;;;;;2.28;1.27;;;;;;;35.79;18.25;100343.84;5047510;28;20057;-71
2022/05/31 08:11:13;;;;;;;2.55;1.92;;;;;;;34.88;17.23;100357.19;5034763;28;20476;-70
2022/05/31 08:13:47;;;;;;;2.33;1.58;;;;;;;34.91;17.98;100352.94;5018584;28;20040;-70
2022/05/31 08:16:24;;;;;;;2.28;2.08;;;;;;;34.51;18.02;100344.63;5053378;28;20112;-71
2022/05/31 08:18:51;;;;;;;2.47;2.15;;;;;;;35.10;17.63;100345.88;5053054;28;20115;-71
2022/05/31 08:21:21;;;;;;;3.83;2.20;;;;;;;34.60;19.34;100337.75;5018859;28;20083;-71
2022/05/31 08:23:47;;;;;;;3.30;1.90;;;;;;;34.40;17.95;100343.22;5028193;28;20099;-71
2022/05/31 08:26:16;;;;;;;2.58;2.10;;;;;;;34.63;16.98;100340.19;4982606;28;20103;-71
2022/05/31 08:28:44;;;;;;;2.15;2.05;;;;;;;34.89;16.79;100346.91;5033053;28;20120;-73
2022/05/31 08:31:31;;;;;;;2.13;1.92;;;;;;;34.21;18.09;100332.50;5037644;28;20172;-73
2022/05/31 08:33:58;;;;;;;2.33;1.95;;;;;;;34.28;20.39;100333.63;5014330;28;20045;-73
2022/05/31 08:36:24;;;;;;;2.92;1.80;;;;;;;34.09;18.77;100328.75;5011066;28;20064;-75
2022/05/31 08:38:49;;;;;;;3.10;2.05;;;;;;;34.50;18.70;100323.13;5031420;28;20033;-73
2022/05/31 08:41:43;;;;;;;2.63;2.25;;;;;;;34.87;18.52;100326.06;5018609;28;20051;-72
2022/05/31 08:44:22;;;;;;;2.85;2.20;;;;;;;34.90;16.39;100326.94;5021866;28;20037;-73
2022/05/31 08:47:00;;;;;;;1.50;1.40;;;;;;;34.73;17.49;100321.53;5032128;28;20446;-73
2022/05/31 08:53:12;;;;;;;1.40;1.30;;;;;;;34.55;17.57;100315.25;5043664;28;20035;-73
2022/05/31 08:58:58;;;;;;;1.33;1.17;;;;;;;33.69;18.06;100300.44;5035494;28;20040;-73
2022/05/31 09:01:54;;;;;;;0.90;0.90;;;;;;;33.89;18.00;100306.84;5042679;28;20052;-73
2022/05/31 09:04:36;;;;;;;2.45;1.00;;;;;;;34.13;17.24;100287.63;5032974;28;20025;-73
2022/05/31 09:07:09;;;;;;;1.73;1.55;;;;;;;33.64;17.68;100291.94;5040335;28;20017;-73
2022/05/31 09:10:15;;;;;;;2.08;1.20;;;;;;;33.26;17.66;100287.31;5032402;28;20057;-73
2022/05/31 09:12:57;;;;;;;1.42;1.33;;;;;;;32.67;18.32;100298.22;5032420;28;20056;-73
2022/05/31 09:15:45;;;;;;;4.10;1.27;;;;;;;31.60;19.41;100290.81;5031645;28;20033;-73
2022/05/31 09:18:38;;;;;;;2.17;1.00;;;;;;;31.38;19.65;100284.06;5031391;28;20040;-74
2022/05/31 09:21:06;;;;;;;3.75;1.30;;;;;;;31.30;19.23;100289.38;5032472;28;20386;-73
2022/05/31 09:23:45;;;;;;;9.00;1.67;;;;;;;30.91;19.32;100282.06;5035081;28;20022;-77
2022/05/31 09:26:51;;;;;;;1.95;1.13;;;;;;;30.93;19.75;100285.19;5021528;28;20030;-76
2022/05/31 09:29:22;;;;;;;2.53;0.85;;;;;;;30.74;19.54;100280.09;5036078;28;20040;-76
2022/05/31 09:32:27;;;;;;;24.98;6.25;;;;;;;30.28;21.31;100272.25;5036614;28;20029;-77
2022/05/31 09:35:27;;;;;;;3.70;2.05;;;;;;;29.92;21.19;100272.41;5053520;28;20087;-74
2022/05/31 09:38:08;;;;;;;3.92;2.03;;;;;;;29.32;21.23;100274.25;5055859;28;20036;-76
2022/05/31 09:40:41;;;;;;;8.30;2.05;;;;;;;29.37;21.77;100273.97;5056115;28;20048;-76
2022/05/31 09:43:19;;;;;;;1.25;0.90;;;;;;;29.22;21.59;100262.47;5037081;28;20107;-75
2022/05/31 09:45:56;;;;;;;2.60;1.23;;;;;;;29.04;23.18;100261.78;5056053;28;20052;-76
2022/05/31 09:48:21;;;;;;;0.90;0.90;;;;;;;29.08;23.78;100258.38;5056214;28;20083;-77
2022/05/31 09:50:48;;;;;;;4.00;2.10;;;;;;;29.12;23.17;100264.56;5021686;28;20431;-79
2022/05/31 09:59:11;;;;;;;11.60;3.17;;;;;;;28.68;23.10;100247.81;5035128;28;20045;-77
2022/05/31 10:01:45;;;;;;;1.35;1.13;;;;;;;28.48;22.50;100251.25;5034110;28;20037;-79
2022/05/31 10:04:31;;;;;;;1.05;1.05;;;;;;;28.29;23.67;100246.81;5036072;28;20033;-78
2022/05/31 10:07:08;;;;;;;1.60;1.30;;;;;;;28.12;24.15;100223.38;5035223;28;20504;-77
2022/05/31 10:09:41;;;;;;;2.13;1.23;;;;;;;28.11;23.58;100250.34;5034326;28;20025;-79
2022/05/31 10:12:11;;;;;;;3.22;2.60;;;;;;;27.89;24.87;100252.16;5017886;28;20056;-78
2022/05/31 10:14:41;;;;;;;2.08;1.63;;;;;;;27.85;23.64;100245.97;5035521;28;20037;-79
2022/05/31 10:17:27;;;;;;;1.70;0.95;;;;;;;28.09;26.33;100239.22;5034744;28;20088;-79
2022/05/31 10:20:12;;;;;;;2.05;1.40;;;;;;;28.23;25.10;100239.66;5034512;28;20037;-77
2022/05/31 10:22:58;;;;;;;2.88;1.40;;;;;;;27.85;24.41;100235.03;5035467;28;20111;-76
2022/05/31 10:25:34;;;;;;;1.92;1.30;;;;;;;27.28;26.07;100228.59;5019848;28;20033;-78
2022/05/31 10:28:04;;;;;;;1.65;1.13;;;;;;;26.86;24.84;100243.94;5017435;28;20581;-80
2022/05/31 10:30:31;;;;;;;22.02;4.00;;;;;;;27.01;26.06;100231.34;5018062;28;20482;-79
2022/05/31 10:33:23;;;;;;;3.78;3.25;;;;;;;27.20;26.14;100231.56;5001338;28;20124;-80
2022/05/31 10:36:14;;;;;;;2.25;1.15;;;;;;;27.42;26.03;100218.09;5020308;28;20063;-80
2022/05/31 10:38:43;;;;;;;2.53;1.20;;;;;;;27.54;25.59;100212.53;5031086;28;20055;-80
2022/05/31 10:41:30;;;;;;;4.40;1.30;;;;;;;27.59;24.44;100229.06;5038269;28;20033;-80
2022/05/31 10:44:41;;;;;;;1.65;1.55;;;;;;;27.39;26.62;100222.22;5039786;28;20036;-79
2022/05/31 10:47:13;;;;;;;6.65;1.77;;;;;;;27.70;25.19;100211.00;4975138;28;20039;-74
2022/05/31 10:49:40;;;;;;;7.22;1.83;;;;;;;28.06;26.16;100205.28;5004364;28;20076;-73
2022/05/31 10:52:28;;;;;;;8.02;1.45;;;;;;;28.25;24.40;100205.47;5034518;28;20029;-74
2022/05/31 10:55:19;;;;;;;1.73;1.30;;;;;;;28.32;24.21;100200.84;5034371;28;20026;-73
2022/05/31 10:58:20;;;;;;;8.45;1.85;;;;;;;27.89;24.21;100209.00;5018792;28;20029;-74
2022/05/31 11:01:13;;;;;;;3.38;2.08;;;;;;;27.10;26.62;100206.50;4993324;28;20499;-73
2022/05/31 11:04:21;;;;;;;1.30;1.20;;;;;;;26.76;25.98;100205.00;5033437;28;20437;-73
2022/05/31 11:07:05;;;;;;;3.67;1.30;;;;;;;26.10;26.50;100194.66;5034083;28;20029;-73
2022/05/31 11:13:27;;;;;;;1.45;1.15;;;;;;;25.69;29.79;100186.47;5033581;28;20076;-73
2022/05/31 11:16:02;;;;;;;36.25;9.00;;;;;;;25.60;30.48;100173.28;5034331;28;20439;-74
2022/05/31 11:19:01;;;;;;;1.30;1.10;;;;;;;25.29;31.02;100171.75;5032583;28;20120;-72
2022/05/31 11:21:41;;;;;;;4.50;1.90;;;;;;;24.82;29.08;100173.13;5033259;28;20474;-78
2022/05/31 11:24:27;;;;;;;4.55;1.73;;;;;;;24.49;30.09;100177.97;5032761;28;20064;-73
2022/05/31 11:27:12;;;;;;;2.20;1.23;;;;;;;24.61;30.76;100178.38;5034050;28;20034;-74
2022/05/31 11:30:03;;;;;;;1.73;0.90;;;;;;;24.34;32.02;100169.19;5032568;28;20032;-73
2022/05/31 11:33:00;;;;;;;3.08;1.55;;;;;;;24.46;30.82;100172.53;5032561;28;20029;-73
2022/05/31 11:35:25;;;;;;;1.83;1.40;;;;;;;24.56;31.91;100164.78;5033198;28;20497;-73
2022/05/31 11:38:03;;;;;;;9.60;2.97;;;;;;;24.65;32.13;100175.84;5033425;28;20125;-72
2022/05/31 11:40:57;;;;;;;2.15;1.45;;;;;;;24.36;31.11;100163.56;5033265;28;20025;-73
2022/05/31 11:43:44;;;;;;;2.25;1.58;;;;;;;24.36;30.61;100163.56;5033635;28;20033;-74
2022/05/31 11:46:32;;;;;;;1.70;1.52;;;;;;;24.22;31.23;100159.28;5033183;28;20470;-75
2022/05/31 11:49:06;;;;;;;1.52;1.42;;;;;;;24.45;31.21;100151.34;5041786;28;20044;-74
2022/05/31 11:51:51;;;;;;;1.30;1.20;;;;;;;24.68;31.37;100156.41;5034243;28;20025;-74
2022/05/31 11:55:25;;;;;;;1.40;1.00;;;;;;;24.95;31.21;100145.97;5053116;28;20035;-73
2022/05/31 11:58:08;;;;;;;3.28;1.80;;;;;;;25.05;29.43;100144.00;5053002;28;20474;-74
2022/05/31 12:00:49;;;;;;;2.38;1.30;;;;;;;25.09;32.77;100149.44;5052159;28;20033;-74
2022/05/31 12:03:25;;;;;;;2.67;1.40;;;;;;;24.94;30.54;100130.59;5034372;28;20029;-73
2022/05/31 12:05:58;;;;;;;1.73;1.30;;;;;;;25.24;29.65;100149.41;5031503;28;20171;-73
2022/05/31 12:08:29;;;;;;;4.35;1.92;;;;;;;25.06;30.00;100133.13;5034989;28;20548;-74
2022/05/31 12:10:57;;;;;;;;;;;;;;;25.07;31.00;100134.66;5015469;28;20470;-74
2022/05/31 12:13:25;;;;;;;2.78;1.35;;;;;;;25.38;30.35;100125.25;5051195;28;19913;-72
2022/05/31 12:15:53;;;;;;;2.20;1.40;;;;;;;25.43;29.41;100122.72;5053134;28;20056;-72